Time;durP1;ratioP1;P1;durP2;ratioP2;P2;SDS_P1;SDS_P2;PMS_P1;PMS_P2;Temp;Humidity;BMP_temperature;BMP_pressure;BME280_temperature;BME280_humidity;BME280_pressure;Samples;Min_cycle;Max_cycle;Signal;HPM_P1;HPM_P2
2023/03/01 00:01:36;;;;;;;17.30;8.32;;;;;;;1.76;59.81;102496.25;5107822;28;20059;-54
2023/03/01 00:04:03;;;;;;;20.45;9.73;;;;;;;1.73;60.45;102497.22;5108942;28;20040;-53
2023/03/01 00:06:30;;;;;;;20.45;8.70;;;;;;;1.53;60.83;102504.91;5113071;28;20209;-54
2023/03/01 00:08:58;;;;;;;20.67;8.95;;;;;;;1.59;60.76;102502.06;5108841;28;20050;-54
2023/03/01 00:11:28;;;;;;;18.98;9.52;;;;;;;1.63;60.53;102495.81;5113445;28;20059;-54
2023/03/01 00:13:57;;;;;;;19.92;8.82;;;;;;;1.56;61.23;102498.72;5110096;28;20105;-54
2023/03/01 00:16:28;;;;;;;16.27;8.70;;;;;;;1.47;61.05;102492.88;5117701;28;20048;-54
2023/03/01 00:18:57;;;;;;;18.70;8.70;;;;;;;1.46;60.88;102498.19;5109274;28;20048;-54
2023/03/01 00:21:25;;;;;;;20.58;9.20;;;;;;;1.38;60.87;102495.81;5117397;28;20103;-54
2023/03/01 00:23:52;;;;;;;20.23;8.82;;;;;;;1.48;60.92;102498.97;5111575;28;20069;-54
2023/03/01 00:26:20;;;;;;;19.23;8.80;;;;;;;1.58;60.92;102486.44;5116964;28;20035;-54
2023/03/01 00:28:47;;;;;;;18.65;8.82;;;;;;;1.62;60.75;102488.91;5112743;28;20736;-54
2023/03/01 00:31:17;;;;;;;21.48;9.52;;;;;;;1.67;60.49;102488.72;5117290;28;20116;-54
2023/03/01 00:33:44;;;;;;;16.70;8.77;;;;;;;1.64;60.21;102491.47;5112535;28;20044;-54
2023/03/01 00:36:14;;;;;;;17.05;8.75;;;;;;;1.63;60.79;102484.50;5117190;28;20126;-55
2023/03/01 00:38:44;;;;;;;16.75;8.73;;;;;;;1.59;60.88;102488.16;5113489;28;20047;-54
2023/03/01 00:41:14;;;;;;;17.75;8.52;;;;;;;1.54;61.08;102489.13;5117167;28;20071;-54
2023/03/01 00:43:41;;;;;;;20.90;9.13;;;;;;;1.50;60.81;102487.53;5113543;28;20048;-55
2023/03/01 00:46:10;;;;;;;16.70;8.80;;;;;;;1.46;61.60;102480.72;5117047;28;20039;-54
2023/03/01 00:48:37;;;;;;;18.35;8.88;;;;;;;1.46;61.30;102475.47;5113310;28;20048;-54
2023/03/01 00:51:09;;;;;;;20.67;9.43;;;;;;;1.46;61.66;102462.41;5102050;28;20375;-53
2023/03/01 00:53:36;;;;;;;17.45;8.93;;;;;;;1.44;61.78;102466.00;5093617;28;20052;-54
2023/03/01 00:56:05;;;;;;;17.80;9.25;;;;;;;1.39;61.65;102471.38;5095463;28;20043;-53
2023/03/01 00:58:32;;;;;;;17.35;8.68;;;;;;;1.41;62.08;102471.31;5091669;28;20044;-55
2023/03/01 01:01:00;;;;;;;20.92;9.52;;;;;;;1.35;61.76;102472.38;5109439;28;20059;-54
2023/03/01 01:03:27;;;;;;;20.10;9.90;;;;;;;1.34;61.54;102471.50;5115518;28;20040;-53
2023/03/01 01:05:53;;;;;;;22.38;9.90;;;;;;;1.22;61.45;102469.34;5113180;28;20079;-53
2023/03/01 01:08:20;;;;;;;23.35;9.55;;;;;;;1.31;61.56;102468.16;5115002;28;20446;-53
2023/03/01 01:10:47;;;;;;;18.42;9.07;;;;;;;1.35;61.36;102467.16;5111882;27;20079;-53
2023/03/01 01:13:14;;;;;;;18.80;9.38;;;;;;;1.31;61.40;102469.03;5116646;28;20442;-54
2023/03/01 01:15:42;;;;;;;16.88;9.38;;;;;;;1.24;62.05;102472.75;5110611;28;20456;-54
2023/03/01 01:18:08;;;;;;;18.25;9.05;;;;;;;1.30;61.40;102472.53;5115818;28;20043;-54
2023/03/01 01:20:35;;;;;;;19.08;9.15;;;;;;;1.26;61.78;102455.25;5097408;28;20162;-54
2023/03/01 01:23:02;;;;;;;19.60;9.48;;;;;;;1.27;61.69;102448.25;5101271;28;20039;-52
2023/03/01 01:25:28;;;;;;;18.73;9.38;;;;;;;1.21;62.12;102449.31;5111236;28;20035;-54
2023/03/01 01:27:55;;;;;;;24.67;10.73;;;;;;;1.21;61.83;102441.47;5116150;28;20047;-54
2023/03/01 01:30:22;;;;;;;19.30;9.27;;;;;;;1.09;62.69;102442.75;5111557;28;20043;-54
2023/03/01 01:32:48;;;;;;;18.70;9.13;;;;;;;1.06;62.67;102432.38;5115641;28;20135;-53
2023/03/01 01:35:15;;;;;;;18.48;9.45;;;;;;;1.05;63.32;102429.81;5111300;28;20104;-53
2023/03/01 01:37:42;;;;;;;19.70;9.88;;;;;;;0.99;63.28;102425.66;5115957;28;20081;-54
2023/03/01 01:40:09;;;;;;;18.70;9.63;;;;;;;1.01;62.29;102428.22;5111496;28;20276;-54
2023/03/01 01:42:36;;;;;;;21.52;9.77;;;;;;;1.03;62.88;102424.63;5116031;28;20453;-54
2023/03/01 01:45:26;;;;;;;17.50;9.27;;;;;;;0.94;63.39;102417.09;5111422;28;20036;-54
2023/03/01 01:47:57;;;;;;;18.08;9.23;;;;;;;0.90;63.40;102416.34;5114931;28;20042;-54
2023/03/01 01:50:25;;;;;;;19.20;10.52;;;;;;;0.87;63.66;102415.59;5111213;28;20042;-55
2023/03/01 01:52:53;;;;;;;20.88;10.25;;;;;;;0.78;64.24;102408.91;5115374;28;20047;-54
2023/03/01 01:55:27;;;;;;;19.27;9.40;;;;;;;0.77;64.09;102399.38;5111014;28;20533;-54
2023/03/01 01:57:58;;;;;;;21.50;10.10;;;;;;;0.74;63.82;102395.09;5115527;28;20089;-55
2023/03/01 02:00:27;;;;;;;19.88;9.88;;;;;;;0.69;64.27;102391.78;5104079;28;20051;-55
2023/03/01 02:02:59;;;;;;;19.80;9.80;;;;;;;0.67;64.97;102393.56;5114153;28;20052;-55
2023/03/01 02:05:36;;;;;;;19.45;9.15;;;;;;;0.68;65.06;102387.47;5111098;28;20478;-55
2023/03/01 02:08:03;;;;;;;22.27;9.90;;;;;;;0.68;64.59;102377.00;5115304;28;20339;-53
2023/03/01 02:10:33;;;;;;;21.25;9.77;;;;;;;0.64;64.21;102384.97;5110892;27;20100;-53
2023/03/01 02:13:01;;;;;;;19.63;10.25;;;;;;;0.69;64.55;102396.13;5115531;28;20104;-54
2023/03/01 02:15:33;;;;;;;21.10;10.45;;;;;;;0.63;65.10;102386.75;5110267;27;20092;-54
2023/03/01 02:18:01;;;;;;;23.05;10.35;;;;;;;0.66;64.99;102393.66;5115281;28;20127;-53
2023/03/01 02:20:40;;;;;;;19.48;10.43;;;;;;;0.63;65.29;102398.97;5107409;28;20556;-53
2023/03/01 02:23:08;;;;;;;19.65;9.70;;;;;;;0.49;65.33;102397.66;5115094;28;20043;-54
2023/03/01 02:26:07;;;;;;;20.33;10.60;;;;;;;0.48;64.70;102395.09;5110535;28;20199;-54
2023/03/01 02:28:39;;;;;;;23.75;10.98;;;;;;;0.38;64.90;102400.59;5115024;28;20576;-54
2023/03/01 02:33:56;;;;;;;22.63;10.40;;;;;;;0.49;65.72;102396.78;5114506;28;20051;-54
2023/03/01 02:36:28;;;;;;;21.20;10.70;;;;;;;0.42;65.99;102396.13;5109152;28;20039;-54
2023/03/01 02:38:58;;;;;;;21.75;10.73;;;;;;;0.47;66.57;102402.03;5114635;28;20046;-53
2023/03/01 02:41:28;;;;;;;21.85;10.77;;;;;;;0.53;66.75;102393.19;5110070;28;20035;-54
2023/03/01 02:43:55;;;;;;;20.90;10.95;;;;;;;0.54;66.43;102397.50;5114833;27;20043;-55
2023/03/01 02:46:25;;;;;;;25.13;11.90;;;;;;;0.50;66.57;102388.91;5109919;28;20048;-54
2023/03/01 02:48:55;;;;;;;25.60;11.07;;;;;;;0.48;67.18;102382.88;5114116;28;20115;-54
2023/03/01 02:51:48;;;;;;;19.13;10.63;;;;;;;0.49;66.63;102381.13;5093198;28;20486;-54
2023/03/01 02:54:28;;;;;;;20.27;10.90;;;;;;;0.46;67.50;102399.50;5093761;28;20052;-54
2023/03/01 02:56:56;;;;;;;21.52;11.13;;;;;;;0.44;67.09;102388.22;5089443;28;20070;-54
2023/03/01 02:59:28;;;;;;;21.60;10.65;;;;;;;0.44;66.74;102383.88;5093706;28;20052;-53
2023/03/01 03:01:55;;;;;;;20.17;10.40;;;;;;;0.40;66.56;102384.00;5089089;28;20127;-54
2023/03/01 03:04:22;;;;;;;22.42;11.23;;;;;;;0.36;66.41;102381.53;5093862;28;20131;-54
2023/03/01 03:06:51;;;;;;;23.15;11.50;;;;;;;0.38;66.23;102387.53;5089339;28;20118;-54
2023/03/01 03:09:18;;;;;;;19.25;10.57;;;;;;;0.34;66.45;102379.84;5094084;28;20125;-53
2023/03/01 03:11:46;;;;;;;25.75;10.93;;;;;;;0.11;66.88;102377.94;5089095;28;20044;-54
2023/03/01 03:14:15;;;;;;;22.95;11.00;;;;;;;0.20;67.13;102388.13;5093753;28;20048;-54
2023/03/01 03:16:47;;;;;;;23.58;11.27;;;;;;;0.12;66.91;102387.47;5088976;28;20036;-54
2023/03/01 03:19:16;;;;;;;21.05;10.38;;;;;;;0.14;66.66;102385.69;5093716;28;20490;-55
2023/03/01 03:21:43;;;;;;;23.52;11.32;;;;;;;0.18;66.71;102382.06;5108467;28;20488;-54
2023/03/01 03:24:10;;;;;;;20.67;10.50;;;;;;;0.24;66.88;102376.69;5113574;28;20093;-54
2023/03/01 03:26:37;;;;;;;21.95;11.13;;;;;;;0.27;66.27;102376.56;5109234;28;20055;-55
2023/03/01 03:29:04;;;;;;;24.92;10.50;;;;;;;0.32;65.91;102361.59;5113987;28;20497;-54
2023/03/01 03:31:30;;;;;;;23.48;10.85;;;;;;;0.25;66.18;102360.09;5109459;28;20096;-54
2023/03/01 03:33:58;;;;;;;21.80;11.15;;;;;;;0.08;66.51;102365.84;5113659;28;20047;-54
2023/03/01 03:36:25;;;;;;;24.52;10.98;;;;;;;0.08;67.05;102368.44;5108965;28;20379;-53
2023/03/01 03:38:52;;;;;;;22.55;10.85;;;;;;;-0.02;67.38;102364.41;5112833;28;20051;-54
2023/03/01 03:41:19;;;;;;;22.95;11.43;;;;;;;-0.02;67.39;102362.66;5109228;27;20085;-54
2023/03/01 03:43:46;;;;;;;27.10;11.38;;;;;;;-0.24;67.54;102358.97;5113442;28;20092;-54
2023/03/01 03:46:13;;;;;;;25.58;11.57;;;;;;;-0.16;68.01;102361.34;5109204;28;20062;-54
2023/03/01 03:48:43;;;;;;;22.13;11.90;;;;;;;-0.02;67.94;102360.06;5113352;28;20067;-54
2023/03/01 03:51:12;;;;;;;26.98;12.02;;;;;;;0.06;67.24;102362.44;5094283;28;20044;-54
2023/03/01 03:53:39;;;;;;;21.00;11.30;;;;;;;0.13;67.00;102352.66;5092801;28;20058;-54
2023/03/01 03:56:06;;;;;;;23.95;12.07;;;;;;;0.22;66.76;102347.16;5087445;28;20561;-54
2023/03/01 03:58:33;;;;;;;18.55;10.52;;;;;;;0.04;66.22;102356.41;5093079;28;20055;-54
2023/03/01 04:01:01;;;;;;;23.08;12.23;;;;;;;0.05;66.27;102349.41;5095964;28;20047;-54
2023/03/01 04:03:29;;;;;;;24.35;11.82;;;;;;;0.12;66.53;102361.38;5111379;28;20078;-54
2023/03/01 04:05:59;;;;;;;26.75;12.20;;;;;;;0.19;66.66;102347.25;5108875;28;20112;-54
2023/03/01 04:08:27;;;;;;;26.05;11.45;;;;;;;0.19;66.57;102347.25;5113326;28;20051;-55
2023/03/01 04:10:59;;;;;;;21.88;11.43;;;;;;;0.22;65.80;102339.31;5108659;28;20047;-54
2023/03/01 04:13:26;;;;;;;24.90;11.38;;;;;;;0.25;66.11;102336.59;5113653;28;20480;-54
2023/03/01 04:15:54;;;;;;;23.75;11.38;;;;;;;0.22;66.19;102325.41;5108717;28;20039;-53
2023/03/01 04:18:24;;;;;;;24.40;10.90;;;;;;;0.25;65.40;102322.69;5113292;28;20070;-54
2023/03/01 04:20:55;;;;;;;26.40;11.60;;;;;;;0.26;65.54;102324.44;5109219;28;20051;-54
2023/03/01 04:23:21;;;;;;;27.30;12.10;;;;;;;0.01;66.21;102332.16;5110080;28;20126;-54
2023/03/01 04:25:55;;;;;;;21.73;11.07;;;;;;;0.11;66.02;102329.22;5113319;28;20089;-54
2023/03/01 04:28:29;;;;;;;24.65;11.68;;;;;;;0.07;66.18;102327.59;5108572;28;20096;-54
2023/03/01 04:30:57;;;;;;;24.92;11.57;;;;;;;0.09;66.10;102325.81;5113277;28;20451;-54
2023/03/01 04:33:25;;;;;;;22.77;10.93;;;;;;;-0.06;66.42;102318.44;5108490;28;20052;-54
2023/03/01 04:35:52;;;;;;;23.60;11.20;;;;;;;0.01;66.17;102314.75;5113185;28;20040;-54
2023/03/01 04:38:20;;;;;;;22.08;11.50;;;;;;;-0.01;66.34;102325.22;5108544;28;20051;-54
2023/03/01 04:40:47;;;;;;;20.23;10.95;;;;;;;0.10;66.22;102329.25;5113255;28;20044;-55
2023/03/01 04:43:14;;;;;;;22.40;10.98;;;;;;;0.06;66.45;102336.34;5108545;28;20043;-54
2023/03/01 04:45:41;;;;;;;22.75;11.35;;;;;;;-0.04;66.83;102327.94;5113180;28;20044;-54
2023/03/01 04:48:08;;;;;;;23.42;11.43;;;;;;;0.07;66.30;102321.53;5106928;28;20048;-54
2023/03/01 04:50:35;;;;;;;23.60;11.20;;;;;;;0.10;65.65;102326.66;5102862;28;20044;-55
2023/03/01 04:53:02;;;;;;;22.33;11.88;;;;;;;0.12;65.40;102317.00;5087779;28;20071;-54
2023/03/01 04:55:29;;;;;;;22.73;11.40;;;;;;;0.16;64.71;102321.22;5092343;28;20051;-54
2023/03/01 04:57:56;;;;;;;21.02;11.48;;;;;;;-0.07;66.20;102320.19;5087848;28;20055;-54
2023/03/01 05:00:23;;;;;;;21.65;11.07;;;;;;;-0.07;66.80;102320.19;5101802;28;20043;-54
2023/03/01 05:02:54;;;;;;;26.13;12.35;;;;;;;-0.02;66.44;102307.00;5110273;28;20039;-54
2023/03/01 05:05:26;;;;;;;24.65;12.60;;;;;;;0.07;66.21;102318.91;5116379;28;20539;-54
2023/03/01 05:07:56;;;;;;;25.08;11.65;;;;;;;0.09;65.86;102317.09;5111816;28;20042;-55
2023/03/01 05:10:24;;;;;;;23.70;11.05;;;;;;;-0.04;66.28;102319.25;5116230;28;20096;-54
2023/03/01 05:12:52;;;;;;;23.95;11.15;;;;;;;0.08;65.58;102316.25;5112062;28;20131;-55
2023/03/01 05:15:21;;;;;;;22.98;11.88;;;;;;;0.04;66.38;102311.16;5116055;28;20049;-55
2023/03/01 05:17:49;;;;;;;24.85;11.45;;;;;;;-0.07;66.31;102312.38;5111165;28;20044;-55
2023/03/01 05:20:15;;;;;;;23.55;11.55;;;;;;;-0.01;66.04;102309.56;5108705;28;20044;-55
2023/03/01 05:22:43;;;;;;;25.40;12.00;;;;;;;0.04;66.40;102311.16;5090814;28;20401;-55
2023/03/01 05:25:10;;;;;;;24.55;12.40;;;;;;;-0.04;66.60;102304.47;5115556;28;20046;-55
2023/03/01 05:27:36;;;;;;;27.40;11.95;;;;;;;-0.01;66.65;102306.94;5115445;28;20051;-55
2023/03/01 05:30:13;;;;;;;27.83;12.10;;;;;;;0.03;66.42;102312.09;5111381;28;20039;-55
2023/03/01 05:32:43;;;;;;;29.67;12.23;;;;;;;-0.01;66.56;102306.94;5115825;28;20164;-55
2023/03/01 05:35:13;;;;;;;26.10;12.02;;;;;;;0.01;66.38;102303.44;5111018;28;20052;-55
2023/03/01 05:37:41;;;;;;;26.38;10.93;;;;;;;0.01;66.30;102300.84;5115273;28;20465;-54
2023/03/01 05:40:15;;;;;;;27.45;12.43;;;;;;;0.04;66.36;102298.13;5111023;28;20047;-55
2023/03/01 05:42:44;;;;;;;22.08;11.20;;;;;;;0.05;65.94;102292.00;5116060;28;20481;-54
2023/03/01 05:45:13;;;;;;;27.90;12.30;;;;;;;0.04;65.81;102293.78;5110929;28;20456;-55
2023/03/01 05:47:43;;;;;;;28.25;12.27;;;;;;;-0.09;66.29;102301.13;5115635;28;20050;-56
2023/03/01 05:50:18;;;;;;;30.20;13.07;;;;;;;-0.07;66.07;102299.31;5110999;28;20047;-55
2023/03/01 05:52:50;;;;;;;28.27;12.13;;;;;;;-0.02;66.09;102294.81;5115233;28;20055;-55
2023/03/01 05:55:20;;;;;;;28.90;12.27;;;;;;;-0.02;65.98;102300.03;5111912;28;20044;-55
2023/03/01 05:57:48;;;;;;;26.33;12.50;;;;;;;-0.04;66.28;102295.75;5114387;28;20523;-55
2023/03/01 06:00:16;;;;;;;36.10;12.57;;;;;;;-0.05;66.33;102300.13;5109919;27;20052;-55
2023/03/01 06:02:43;;;;;;;24.67;13.20;;;;;;;-0.10;66.52;102307.22;5108127;28;20043;-55
2023/03/01 06:05:14;;;;;;;30.63;12.02;;;;;;;-0.11;66.44;102297.72;5112422;28;20043;-56
2023/03/01 06:07:41;;;;;;;25.02;11.98;;;;;;;-0.28;67.04;102300.81;5115072;28;20047;-55
2023/03/01 06:10:09;;;;;;;25.65;12.70;;;;;;;-0.24;67.35;102302.47;5110612;28;20443;-55
2023/03/01 06:12:37;;;;;;;26.85;12.48;;;;;;;-0.21;66.08;102299.72;5115069;28;20093;-56
2023/03/01 06:15:05;;;;;;;26.95;12.73;;;;;;;-0.14;66.84;102299.56;5109020;28;20052;-55
2023/03/01 06:17:37;;;;;;;28.30;13.20;;;;;;;-0.09;66.88;102301.13;5114788;28;20044;-55
2023/03/01 06:20:05;;;;;;;27.23;12.65;;;;;;;-0.16;67.14;102303.94;5110490;28;20054;-56
2023/03/01 06:22:32;;;;;;;32.70;13.38;;;;;;;-0.18;66.48;102306.63;5114723;28;20116;-55
2023/03/01 06:24:59;;;;;;;26.83;12.48;;;;;;;-0.13;66.39;102293.44;5106745;28;20040;-55
2023/03/01 06:27:26;;;;;;;30.00;13.00;;;;;;;-0.11;66.21;102295.13;5114682;28;20063;-56
2023/03/01 06:29:53;;;;;;;23.73;13.38;;;;;;;-0.17;66.99;102297.88;5110382;28;20047;-55
2023/03/01 06:32:20;;;;;;;28.80;13.60;;;;;;;-0.22;67.11;102298.03;5114882;28;20040;-56
2023/03/01 06:34:46;;;;;;;35.13;14.15;;;;;;;-0.14;66.65;102286.53;5109984;28;20446;-55
2023/03/01 06:37:13;;;;;;;27.23;12.80;;;;;;;-0.09;66.77;102288.09;5114085;28;20043;-55
2023/03/01 06:39:40;;;;;;;28.30;13.25;;;;;;;-0.04;66.59;102298.38;5110013;28;20043;-55
2023/03/01 06:42:08;;;;;;;31.38;12.50;;;;;;;-0.26;66.98;102296.41;5114606;28;20397;-55
2023/03/01 06:44:34;;;;;;;26.45;13.43;;;;;;;-0.08;66.06;102296.75;5109737;28;20051;-55
2023/03/01 06:47:03;;;;;;;30.50;13.60;;;;;;;-0.02;66.10;102297.44;5114195;28;20062;-55
2023/03/01 06:49:30;;;;;;;26.52;12.98;;;;;;;0.01;65.96;102295.63;5108319;28;20043;-55
2023/03/01 06:51:57;;;;;;;28.40;13.52;;;;;;;0.09;66.01;102291.00;5092931;28;20110;-55
2023/03/01 06:54:23;;;;;;;23.17;12.57;;;;;;;0.11;65.59;102291.81;5088776;28;20043;-55
2023/03/01 06:56:50;;;;;;;27.70;12.90;;;;;;;-0.02;65.98;102292.22;5093398;28;20036;-56
2023/03/01 06:59:38;;;;;;;28.20;13.43;;;;;;;0.11;65.64;102295.28;5089066;28;20397;-55
2023/03/01 07:02:05;;;;;;;26.05;12.77;;;;;;;0.06;65.53;102291.97;5112418;28;20073;-55
2023/03/01 07:04:32;;;;;;;25.25;13.38;;;;;;;0.01;65.50;102288.66;5109335;28;20453;-55
2023/03/01 07:06:58;;;;;;;31.95;13.73;;;;;;;0.09;65.39;102291.88;5107398;28;20052;-55
2023/03/01 07:09:25;;;;;;;29.20;13.38;;;;;;;0.19;64.80;102292.44;5114043;28;20049;-55
2023/03/01 07:11:52;;;;;;;24.98;12.57;;;;;;;0.30;64.28;102292.09;5109243;28;20096;-55
2023/03/01 07:14:19;;;;;;;30.33;13.82;;;;;;;0.32;65.01;102296.34;5113911;28;20044;-55
2023/03/01 07:16:46;;;;;;;27.95;12.48;;;;;;;0.35;64.48;102292.81;5109302;28;20096;-55
2023/03/01 07:19:12;;;;;;;26.67;13.77;;;;;;;0.24;64.89;102285.31;5113447;28;20043;-55
2023/03/01 07:21:39;;;;;;;27.35;13.35;;;;;;;0.13;64.77;102274.38;5109366;28;20401;-56
2023/03/01 07:24:07;;;;;;;29.88;12.95;;;;;;;0.27;64.09;102282.56;5111848;28;20505;-55
2023/03/01 07:26:34;;;;;;;27.90;14.07;;;;;;;0.37;64.46;102275.31;5110316;28;20036;-55
2023/03/01 07:29:02;;;;;;;28.92;14.00;;;;;;;0.44;64.08;102274.22;5113975;28;20052;-56
2023/03/01 07:31:29;;;;;;;27.35;14.10;;;;;;;0.24;64.18;102274.00;5107885;28;20048;-55
2023/03/01 07:33:56;;;;;;;25.05;13.88;;;;;;;0.36;64.16;102274.47;5112070;28;20096;-56
2023/03/01 07:36:23;;;;;;;27.70;13.52;;;;;;;0.41;63.85;102271.69;5109228;28;20122;-55
2023/03/01 07:38:50;;;;;;;29.90;13.95;;;;;;;0.54;63.93;102272.97;5113479;28;20043;-55
2023/03/01 07:41:18;;;;;;;28.17;14.38;;;;;;;0.63;63.58;102278.81;5109267;28;20058;-55
2023/03/01 07:43:44;;;;;;;33.33;13.68;;;;;;;0.51;63.24;102272.22;5113818;28;20075;-56
2023/03/01 07:46:11;;;;;;;31.88;13.95;;;;;;;0.46;63.74;102275.00;5109400;28;20044;-54
2023/03/01 07:48:38;;;;;;;28.65;14.15;;;;;;;0.41;63.52;102276.06;5113260;28;20055;-54
2023/03/01 07:51:06;;;;;;;30.02;13.93;;;;;;;0.53;63.27;102278.28;5094499;28;20067;-54
2023/03/01 07:53:34;;;;;;;32.22;14.25;;;;;;;0.61;63.04;102276.25;5092862;28;20052;-54
2023/03/01 07:56:06;;;;;;;29.27;13.75;;;;;;;0.83;61.75;102286.81;5088801;28;20040;-54
2023/03/01 07:58:35;;;;;;;26.38;13.32;;;;;;;0.79;62.89;102287.00;5093389;28;20048;-54
2023/03/01 08:01:04;;;;;;;27.98;13.73;;;;;;;0.79;62.07;102289.59;5100899;28;20085;-55
2023/03/01 08:03:31;;;;;;;29.08;12.90;;;;;;;0.92;61.94;102291.72;5098511;28;20074;-54
2023/03/01 08:06:00;;;;;;;27.10;12.95;;;;;;;1.02;61.05;102289.66;5088914;28;20452;-55
2023/03/01 08:08:27;;;;;;;25.55;13.25;;;;;;;1.07;61.24;102287.69;5092825;28;20063;-54
2023/03/01 08:10:58;;;;;;;31.15;13.02;;;;;;;1.21;61.27;102291.59;5104206;28;20064;-54
2023/03/01 08:13:25;;;;;;;28.20;13.27;;;;;;;1.14;60.67;102291.81;5093130;28;20052;-54
2023/03/01 08:15:52;;;;;;;28.98;13.20;;;;;;;1.32;59.92;102292.91;5088575;28;20318;-54
2023/03/01 08:18:20;;;;;;;26.27;12.80;;;;;;;1.32;59.36;102292.06;5077549;28;20050;-55
2023/03/01 08:20:47;;;;;;;29.05;12.38;;;;;;;1.30;59.36;102286.03;5108217;28;20118;-53
2023/03/01 08:23:14;;;;;;;27.23;13.43;;;;;;;1.49;59.73;102291.41;5112183;28;20074;-55
2023/03/01 08:25:41;;;;;;;27.75;12.90;;;;;;;1.67;59.31;102285.53;5104884;28;20043;-55
2023/03/01 08:28:08;;;;;;;33.58;14.70;;;;;;;1.84;58.39;102282.25;5113285;28;20100;-55
2023/03/01 08:30:34;;;;;;;29.48;13.77;;;;;;;1.89;58.18;102275.06;5111831;28;20138;-55
2023/03/01 08:33:01;;;;;;;31.98;14.88;;;;;;;2.05;58.72;102277.06;5109975;28;20044;-57
2023/03/01 08:35:28;;;;;;;27.73;13.48;;;;;;;2.06;57.00;102273.56;5114173;28;20435;-56
2023/03/01 08:37:54;;;;;;;28.45;14.20;;;;;;;2.16;57.26;102277.47;5113908;28;20154;-55
2023/03/01 08:40:21;;;;;;;24.90;13.52;;;;;;;2.38;57.02;102271.38;5115975;28;20070;-55
2023/03/01 08:42:48;;;;;;;28.42;13.65;;;;;;;2.43;57.40;102272.88;5112443;28;20047;-56
2023/03/01 08:45:18;;;;;;;28.40;13.68;;;;;;;2.32;56.50;102276.88;5116596;28;20448;-56
2023/03/01 08:47:45;;;;;;;31.13;13.05;;;;;;;2.43;56.42;102272.88;5112494;28;20035;-56
2023/03/01 08:50:12;;;;;;;29.17;13.13;;;;;;;2.59;56.29;102273.09;5110006;28;20051;-56
2023/03/01 08:52:38;;;;;;;26.58;13.07;;;;;;;2.66;55.94;102268.47;5091798;28;20168;-56
2023/03/01 08:55:06;;;;;;;27.05;13.70;;;;;;;2.65;55.30;102269.34;5095144;28;20040;-56
2023/03/01 08:57:32;;;;;;;25.52;12.80;;;;;;;2.48;54.94;102272.69;5091965;28;20043;-56
2023/03/01 08:59:59;;;;;;;23.73;12.98;;;;;;;2.49;55.66;102266.53;5100096;28;20108;-54
2023/03/01 09:02:26;;;;;;;28.50;13.32;;;;;;;2.41;56.99;102266.00;5111892;28;20047;-54
2023/03/01 09:04:53;;;;;;;26.83;12.52;;;;;;;2.38;55.34;102260.91;5116426;28;20499;-54
2023/03/01 09:07:19;;;;;;;26.73;12.80;;;;;;;2.46;55.49;102264.06;5112111;28;20119;-54
2023/03/01 09:09:46;;;;;;;30.30;13.90;;;;;;;2.23;55.99;102270.25;5116538;28;20089;-54
2023/03/01 09:12:12;;;;;;;26.63;13.80;;;;;;;2.29;56.12;102256.88;5111997;28;20169;-55
2023/03/01 09:14:41;;;;;;;23.55;12.52;;;;;;;2.34;56.54;102262.78;5116130;28;20401;-54
2023/03/01 09:17:07;;;;;;;33.20;13.65;;;;;;;2.47;56.08;102260.50;5104862;28;20036;-54
2023/03/01 09:19:34;;;;;;;28.90;13.25;;;;;;;2.54;55.39;102261.94;5113655;28;20127;-55
2023/03/01 09:22:03;;;;;;;32.97;14.02;;;;;;;2.74;55.41;102258.47;5110458;28;20043;-55
2023/03/01 09:24:29;;;;;;;31.65;13.43;;;;;;;2.76;55.03;102261.88;5115601;28;20108;-55
2023/03/01 09:26:56;;;;;;;26.77;13.05;;;;;;;2.79;54.35;102260.91;5107479;28;20044;-54
2023/03/01 09:29:25;;;;;;;29.10;12.43;;;;;;;2.90;55.55;102263.91;5115104;28;20039;-54
2023/03/01 09:31:54;;;;;;;27.90;13.68;;;;;;;2.85;54.19;102252.78;5114971;27;20096;-54
2023/03/01 09:34:23;;;;;;;32.50;12.50;;;;;;;2.87;54.56;102249.19;5112296;28;20127;-55
2023/03/01 09:36:50;;;;;;;26.42;12.95;;;;;;;3.03;54.29;102248.50;5114893;28;20031;-54
2023/03/01 09:39:18;;;;;;;25.83;12.00;;;;;;;2.92;51.92;102235.03;5105971;28;20086;-54
2023/03/01 09:42:02;;;;;;;27.63;12.80;;;;;;;3.18;52.21;102239.94;5094438;28;20040;-54
2023/03/01 09:44:51;;;;;;;22.40;11.45;;;;;;;3.47;51.06;102229.88;5094533;28;20557;-54
2023/03/01 09:47:23;;;;;;;25.48;12.63;;;;;;;3.45;51.29;102231.72;5089634;28;20036;-54
2023/03/01 09:50:14;;;;;;;27.65;12.60;;;;;;;3.33;51.38;102227.91;5096945;28;20044;-55
2023/03/01 09:52:53;;;;;;;28.38;12.50;;;;;;;3.46;51.28;102231.66;5090570;28;20051;-55
2023/03/01 09:55:30;;;;;;;23.95;12.10;;;;;;;3.50;51.29;102223.66;5094075;28;20068;-55
2023/03/01 09:58:06;;;;;;;27.38;11.88;;;;;;;3.50;51.50;102226.28;5089809;28;20440;-54
2023/03/01 10:00:42;;;;;;;30.73;12.23;;;;;;;3.46;50.85;102218.53;5103236;28;20093;-55
2023/03/01 10:03:31;;;;;;;25.30;11.90;;;;;;;3.55;51.92;102225.13;5109640;28;20040;-55
2023/03/01 10:06:06;;;;;;;24.02;12.07;;;;;;;3.50;51.12;102218.41;5115768;28;20139;-53
2023/03/01 10:08:41;;;;;;;23.83;12.40;;;;;;;3.82;50.04;102220.34;5101550;28;20089;-54
2023/03/01 10:11:32;;;;;;;26.85;13.10;;;;;;;4.15;51.46;102222.25;5093397;28;20040;-55
2023/03/01 10:17:02;;;;;;;24.38;11.88;;;;;;;5.10;47.33;102221.75;5109258;27;20364;-55
2023/03/01 10:19:38;;;;;;;22.20;11.65;;;;;;;6.42;44.45;102215.25;5104611;28;20046;-55
2023/03/01 10:22:31;;;;;;;25.42;12.35;;;;;;;7.27;42.68;102205.69;5105730;28;20040;-55
2023/03/01 10:25:02;;;;;;;24.30;12.05;;;;;;;8.21;39.54;102195.16;5088773;28;20143;-56
2023/03/01 10:27:37;;;;;;;20.30;11.48;;;;;;;9.41;36.78;102202.72;5084882;28;20102;-56
2023/03/01 10:30:32;;;;;;;31.77;11.95;;;;;;;11.33;34.60;102210.31;5087143;28;20408;-56
2023/03/01 10:32:59;;;;;;;22.45;11.65;;;;;;;12.37;33.05;102208.03;5089113;28;20048;-57
2023/03/01 10:35:35;;;;;;;23.75;12.25;;;;;;;11.89;31.63;102209.34;5084820;28;20040;-55
2023/03/01 10:38:07;;;;;;;24.67;12.05;;;;;;;12.89;30.33;102208.06;5089843;28;20040;-55
2023/03/01 10:40:35;;;;;;;20.45;12.20;;;;;;;13.76;28.98;102202.97;5106714;28;20501;-55
2023/03/01 10:43:05;;;;;;;19.92;11.88;;;;;;;15.07;28.13;102200.66;5107224;28;20070;-55
2023/03/01 10:45:36;;;;;;;22.70;12.02;;;;;;;14.70;27.77;102202.34;5102284;28;20031;-55
2023/03/01 10:48:12;;;;;;;22.70;11.85;;;;;;;15.26;26.50;102207.72;5099759;28;20044;-55
2023/03/01 10:50:40;;;;;;;20.90;11.85;;;;;;;15.23;25.99;102200.84;5104626;28;20054;-55
2023/03/01 10:53:28;;;;;;;21.15;11.90;;;;;;;14.26;26.91;102202.00;5107137;28;20044;-55
2023/03/01 10:56:00;;;;;;;21.83;11.23;;;;;;;14.73;26.42;102193.19;5107077;28;20062;-55
2023/03/01 10:58:28;;;;;;;21.75;11.77;;;;;;;14.26;27.35;102185.97;5104254;28;20035;-55
2023/03/01 11:01:00;;;;;;;22.30;11.85;;;;;;;15.28;26.39;102187.00;5108216;28;20392;-56
2023/03/01 11:03:31;;;;;;;21.52;12.70;;;;;;;14.20;27.42;102178.53;5103177;28;20117;-55
2023/03/01 11:06:03;;;;;;;20.90;11.30;;;;;;;15.03;25.86;102177.88;5109202;28;20047;-56
2023/03/01 11:08:37;;;;;;;21.02;11.48;;;;;;;16.23;24.22;102182.09;5103384;28;20035;-56
2023/03/01 11:14:15;;;;;;;20.30;11.20;;;;;;;17.97;22.45;102166.47;5048144;28;20404;-55
2023/03/01 11:17:21;;;;;;;19.30;10.70;;;;;;;19.92;20.92;102171.25;5048998;28;20045;-55
2023/03/01 11:20:28;;;;;;;21.33;10.95;;;;;;;18.78;20.91;102160.09;5064534;28;20044;-55
2023/03/01 11:23:02;;;;;;;17.73;11.05;;;;;;;18.90;20.87;102159.75;5061180;28;20028;-55
2023/03/01 11:25:35;;;;;;;21.65;10.85;;;;;;;18.24;21.57;102157.22;5061895;28;20049;-55
2023/03/01 11:28:05;;;;;;;17.98;11.10;;;;;;;19.84;20.56;102155.16;5058428;28;20072;-55
2023/03/01 11:30:47;;;;;;;17.42;10.55;;;;;;;19.89;20.28;102149.22;5060311;28;20777;-56
2023/03/01 11:33:43;;;;;;;20.40;11.02;;;;;;;19.89;19.80;102146.53;5067277;28;20129;-57
2023/03/01 11:36:34;;;;;;;19.13;11.02;;;;;;;20.76;19.55;102148.69;5058099;28;21790;-57
2023/03/01 11:39:18;;;;;;;22.23;12.07;;;;;;;19.01;20.48;102140.56;5052694;28;20037;-57